sensor_id;sensor_type;location;lat;lon;timestamp;P1;durP1;ratioP1;P2;durP2;ratioP2
30458;SDS011;74163;50.912;6.918;2023-12-22T00:00:29;6.35;;;3.25;;
30458;SDS011;74163;50.912;6.918;2023-12-22T00:01:01;6.72;;;3.30;;
30458;SDS011;74163;50.912;6.918;2023-12-22T00:01:32;5.07;;;3.10;;
30458;SDS011;74163;50.912;6.918;2023-12-22T00:02:04;5.63;;;3.17;;
30458;SDS011;74163;50.912;6.918;2023-12-22T00:02:36;4.65;;;3.50;;
30458;SDS011;74163;50.912;6.918;2023-12-22T00:03:08;5.50;;;3.17;;
30458;SDS011;74163;50.912;6.918;2023-12-22T00:03:41;5.45;;;3.45;;
30458;SDS011;74163;50.912;6.918;2023-12-22T00:04:14;3.83;;;3.38;;
30458;SDS011;74163;50.912;6.918;2023-12-22T00:04:46;4.82;;;3.33;;
30458;SDS011;74163;50.912;6.918;2023-12-22T00:05:18;4.63;;;3.30;;
30458;SDS011;74163;50.912;6.918;2023-12-22T00:05:49;5.03;;;3.00;;
30458;SDS011;74163;50.912;6.918;2023-12-22T00:06:21;5.65;;;3.30;;
30458;SDS011;74163;50.912;6.918;2023-12-22T00:06:53;4.38;;;3.10;;
30458;SDS011;74163;50.912;6.918;2023-12-22T00:07:25;5.65;;;3.38;;
30458;SDS011;74163;50.912;6.918;2023-12-22T00:07:57;6.38;;;3.35;;
30458;SDS011;74163;50.912;6.918;2023-12-22T00:08:29;5.15;;;3.33;;
30458;SDS011;74163;50.912;6.918;2023-12-22T00:09:00;3.95;;;3.25;;
30458;SDS011;74163;50.912;6.918;2023-12-22T00:09:48;4.03;;;3.58;;
30458;SDS011;74163;50.912;6.918;2023-12-22T00:10:27;3.57;;;3.00;;
30458;SDS011;74163;50.912;6.918;2023-12-22T00:10:59;4.70;;;3.40;;
30458;SDS011;74163;50.912;6.918;2023-12-22T00:11:31;5.73;;;3.47;;
30458;SDS011;74163;50.912;6.918;2023-12-22T00:12:03;5.45;;;3.45;;
30458;SDS011;74163;50.912;6.918;2023-12-22T00:12:35;5.00;;;3.17;;
30458;SDS011;74163;50.912;6.918;2023-12-22T00:13:07;3.92;;;3.08;;
30458;SDS011;74163;50.912;6.918;2023-12-22T00:13:40;4.75;;;3.50;;
30458;SDS011;74163;50.912;6.918;2023-12-22T00:14:13;5.45;;;3.40;;
30458;SDS011;74163;50.912;6.918;2023-12-22T00:14:45;6.20;;;3.72;;
30458;SDS011;74163;50.912;6.918;2023-12-22T00:15:17;4.72;;;3.28;;
30458;SDS011;74163;50.912;6.918;2023-12-22T00:15:48;5.23;;;3.60;;
30458;SDS011;74163;50.912;6.918;2023-12-22T00:16:20;4.68;;;3.53;;
30458;SDS011;74163;50.912;6.918;2023-12-22T00:16:52;5.18;;;3.50;;
30458;SDS011;74163;50.912;6.918;2023-12-22T00:17:24;4.78;;;3.55;;
30458;SDS011;74163;50.912;6.918;2023-12-22T00:17:56;4.65;;;3.70;;
30458;SDS011;74163;50.912;6.918;2023-12-22T00:18:28;8.18;;;3.88;;
30458;SDS011;74163;50.912;6.918;2023-12-22T00:19:00;4.80;;;3.60;;
30458;SDS011;74163;50.912;6.918;2023-12-22T00:19:32;4.78;;;3.72;;
30458;SDS011;74163;50.912;6.918;2023-12-22T00:20:04;5.57;;;3.70;;
30458;SDS011;74163;50.912;6.918;2023-12-22T00:20:37;5.55;;;3.63;;
30458;SDS011;74163;50.912;6.918;2023-12-22T00:21:09;5.65;;;3.88;;
30458;SDS011;74163;50.912;6.918;2023-12-22T00:21:41;6.90;;;3.90;;
30458;SDS011;74163;50.912;6.918;2023-12-22T00:22:13;7.60;;;3.60;;
30458;SDS011;74163;50.912;6.918;2023-12-22T00:22:45;8.82;;;4.30;;
30458;SDS011;74163;50.912;6.918;2023-12-22T00:23:16;9.13;;;4.00;;
30458;SDS011;74163;50.912;6.918;2023-12-22T00:23:48;6.75;;;3.83;;
30458;SDS011;74163;50.912;6.918;2023-12-22T00:24:20;7.25;;;4.10;;
30458;SDS011;74163;50.912;6.918;2023-12-22T00:24:52;5.72;;;3.70;;
30458;SDS011;74163;50.912;6.918;2023-12-22T00:25:24;7.47;;;3.77;;
30458;SDS011;74163;50.912;6.918;2023-12-22T00:25:56;8.50;;;4.10;;
30458;SDS011;74163;50.912;6.918;2023-12-22T00:26:28;8.57;;;3.80;;
30458;SDS011;74163;50.912;6.918;2023-12-22T00:27:00;8.70;;;4.20;;
30458;SDS011;74163;50.912;6.918;2023-12-22T00:27:31;6.25;;;4.22;;
30458;SDS011;74163;50.912;6.918;2023-12-22T00:28:03;6.72;;;4.15;;
30458;SDS011;74163;50.912;6.918;2023-12-22T00:28:35;6.85;;;4.10;;
30458;SDS011;74163;50.912;6.918;2023-12-22T00:29:07;6.78;;;3.95;;
30458;SDS011;74163;50.912;6.918;2023-12-22T00:29:41;6.07;;;3.95;;
30458;SDS011;74163;50.912;6.918;2023-12-22T00:30:13;8.73;;;4.35;;
30458;SDS011;74163;50.912;6.918;2023-12-22T00:30:45;7.75;;;4.40;;
30458;SDS011;74163;50.912;6.918;2023-12-22T00:31:16;8.10;;;4.28;;
30458;SDS011;74163;50.912;6.918;2023-12-22T00:31:48;7.68;;;4.35;;
30458;SDS011;74163;50.912;6.918;2023-12-22T00:32:20;7.78;;;4.50;;
30458;SDS011;74163;50.912;6.918;2023-12-22T00:32:52;9.85;;;4.53;;
30458;SDS011;74163;50.912;6.918;2023-12-22T00:33:24;8.35;;;5.18;;
30458;SDS011;74163;50.912;6.918;2023-12-22T00:33:56;10.88;;;5.45;;
30458;SDS011;74163;50.912;6.918;2023-12-22T00:34:31;8.63;;;5.38;;
30458;SDS011;74163;50.912;6.918;2023-12-22T00:35:03;9.30;;;5.00;;
30458;SDS011;74163;50.912;6.918;2023-12-22T00:35:35;6.97;;;4.10;;
30458;SDS011;74163;50.912;6.918;2023-12-22T00:36:07;9.32;;;4.10;;
30458;SDS011;74163;50.912;6.918;2023-12-22T00:36:39;6.82;;;4.05;;
30458;SDS011;74163;50.912;6.918;2023-12-22T00:37:11;7.45;;;4.10;;
30458;SDS011;74163;50.912;6.918;2023-12-22T00:37:43;8.48;;;4.00;;
30458;SDS011;74163;50.912;6.918;2023-12-22T00:38:15;8.45;;;3.78;;
30458;SDS011;74163;50.912;6.918;2023-12-22T00:38:46;8.13;;;4.40;;
30458;SDS011;74163;50.912;6.918;2023-12-22T00:39:18;6.15;;;3.65;;
30458;SDS011;74163;50.912;6.918;2023-12-22T00:39:50;8.63;;;4.10;;
30458;SDS011;74163;50.912;6.918;2023-12-22T00:40:24;6.78;;;4.00;;
30458;SDS011;74163;50.912;6.918;2023-12-22T00:40:56;6.18;;;3.70;;
30458;SDS011;74163;50.912;6.918;2023-12-22T00:41:28;7.47;;;4.10;;
30458;SDS011;74163;50.912;6.918;2023-12-22T00:42:00;8.50;;;3.90;;
30458;SDS011;74163;50.912;6.918;2023-12-22T00:42:32;5.80;;;3.78;;
30458;SDS011;74163;50.912;6.918;2023-12-22T00:43:04;7.50;;;4.32;;
30458;SDS011;74163;50.912;6.918;2023-12-22T00:43:36;8.65;;;3.80;;
30458;SDS011;74163;50.912;6.918;2023-12-22T00:44:08;8.77;;;4.13;;
30458;SDS011;74163;50.912;6.918;2023-12-22T00:44:41;5.53;;;3.63;;
30458;SDS011;74163;50.912;6.918;2023-12-22T00:45:13;6.65;;;3.83;;
30458;SDS011;74163;50.912;6.918;2023-12-22T00:45:45;8.82;;;4.07;;
30458;SDS011;74163;50.912;6.918;2023-12-22T00:46:17;6.85;;;3.70;;
30458;SDS011;74163;50.912;6.918;2023-12-22T00:46:48;8.10;;;3.63;;
30458;SDS011;74163;50.912;6.918;2023-12-22T00:47:20;7.97;;;3.90;;
30458;SDS011;74163;50.912;6.918;2023-12-22T00:47:52;7.40;;;3.60;;
30458;SDS011;74163;50.912;6.918;2023-12-22T00:48:24;8.73;;;3.63;;
30458;SDS011;74163;50.912;6.918;2023-12-22T00:48:56;8.23;;;4.23;;
30458;SDS011;74163;50.912;6.918;2023-12-22T00:49:28;9.13;;;4.38;;
30458;SDS011;74163;50.912;6.918;2023-12-22T00:50:00;9.20;;;4.05;;
30458;SDS011;74163;50.912;6.918;2023-12-22T00:50:32;7.60;;;4.25;;
30458;SDS011;74163;50.912;6.918;2023-12-22T00:51:05;8.23;;;3.75;;
30458;SDS011;74163;50.912;6.918;2023-12-22T00:51:37;8.00;;;3.67;;
30458;SDS011;74163;50.912;6.918;2023-12-22T00:52:09;7.90;;;3.63;;
30458;SDS011;74163;50.912;6.918;2023-12-22T00:52:41;8.85;;;3.83;;
30458;SDS011;74163;50.912;6.918;2023-12-22T00:53:12;7.97;;;3.70;;
30458;SDS011;74163;50.912;6.918;2023-12-22T00:53:44;5.72;;;4.10;;
30458;SDS011;74163;50.912;6.918;2023-12-22T00:54:16;8.88;;;3.83;;
30458;SDS011;74163;50.912;6.918;2023-12-22T00:54:48;9.07;;;3.85;;
30458;SDS011;74163;50.912;6.918;2023-12-22T00:55:20;7.25;;;3.97;;
30458;SDS011;74163;50.912;6.918;2023-12-22T00:55:51;7.90;;;4.10;;
30458;SDS011;74163;50.912;6.918;2023-12-22T00:56:23;8.23;;;3.90;;
30458;SDS011;74163;50.912;6.918;2023-12-22T00:56:55;6.38;;;3.83;;
30458;SDS011;74163;50.912;6.918;2023-12-22T00:57:27;8.67;;;3.90;;
30458;SDS011;74163;50.912;6.918;2023-12-22T00:57:59;8.68;;;3.88;;
30458;SDS011;74163;50.912;6.918;2023-12-22T00:58:31;9.43;;;4.05;;
30458;SDS011;74163;50.912;6.918;2023-12-22T00:59:03;9.73;;;4.00;;
30458;SDS011;74163;50.912;6.918;2023-12-22T00:59:43;8.15;;;4.10;;
30458;SDS011;74163;50.912;6.918;2023-12-22T01:00:15;8.77;;;3.60;;
30458;SDS011;74163;50.912;6.918;2023-12-22T01:00:48;7.97;;;3.60;;
30458;SDS011;74163;50.912;6.918;2023-12-22T01:01:19;9.73;;;3.97;;
30458;SDS011;74163;50.912;6.918;2023-12-22T01:01:51;6.95;;;3.25;;
30458;SDS011;74163;50.912;6.918;2023-12-22T01:02:23;7.55;;;3.72;;
30458;SDS011;74163;50.912;6.918;2023-12-22T01:02:55;8.25;;;3.95;;
30458;SDS011;74163;50.912;6.918;2023-12-22T01:03:27;8.60;;;3.90;;
30458;SDS011;74163;50.912;6.918;2023-12-22T01:03:59;8.40;;;3.75;;
30458;SDS011;74163;50.912;6.918;2023-12-22T01:04:31;8.65;;;3.42;;
30458;SDS011;74163;50.912;6.918;2023-12-22T01:05:03;10.82;;;4.30;;
30458;SDS011;74163;50.912;6.918;2023-12-22T01:05:36;8.57;;;3.67;;
30458;SDS011;74163;50.912;6.918;2023-12-22T01:06:07;8.15;;;3.53;;
30458;SDS011;74163;50.912;6.918;2023-12-22T01:06:41;8.18;;;3.60;;
30458;SDS011;74163;50.912;6.918;2023-12-22T01:07:13;8.20;;;3.65;;
30458;SDS011;74163;50.912;6.918;2023-12-22T01:07:44;9.10;;;4.00;;
30458;SDS011;74163;50.912;6.918;2023-12-22T01:08:17;7.63;;;3.70;;
30458;SDS011;74163;50.912;6.918;2023-12-22T01:08:48;7.18;;;3.67;;
30458;SDS011;74163;50.912;6.918;2023-12-22T01:09:20;7.90;;;3.92;;
30458;SDS011;74163;50.912;6.918;2023-12-22T01:09:52;6.15;;;3.38;;
30458;SDS011;74163;50.912;6.918;2023-12-22T01:10:24;7.32;;;3.58;;
30458;SDS011;74163;50.912;6.918;2023-12-22T01:10:56;7.68;;;4.10;;
30458;SDS011;74163;50.912;6.918;2023-12-22T01:11:28;7.28;;;3.70;;
30458;SDS011;74163;50.912;6.918;2023-12-22T01:12:00;8.15;;;3.60;;
30458;SDS011;74163;50.912;6.918;2023-12-22T01:12:32;6.63;;;3.30;;
30458;SDS011;74163;50.912;6.918;2023-12-22T01:13:04;8.55;;;4.25;;
30458;SDS011;74163;50.912;6.918;2023-12-22T01:13:35;7.80;;;4.15;;
30458;SDS011;74163;50.912;6.918;2023-12-22T01:14:07;8.80;;;3.65;;
30458;SDS011;74163;50.912;6.918;2023-12-22T01:14:39;9.57;;;3.67;;
30458;SDS011;74163;50.912;6.918;2023-12-22T01:15:12;9.97;;;3.97;;
30458;SDS011;74163;50.912;6.918;2023-12-22T01:15:44;8.60;;;3.38;;
30458;SDS011;74163;50.912;6.918;2023-12-22T01:16:16;6.60;;;3.70;;
30458;SDS011;74163;50.912;6.918;2023-12-22T01:16:48;10.68;;;3.60;;
30458;SDS011;74163;50.912;6.918;2023-12-22T01:17:20;8.43;;;3.40;;
30458;SDS011;74163;50.912;6.918;2023-12-22T01:17:53;8.13;;;3.67;;
30458;SDS011;74163;50.912;6.918;2023-12-22T01:18:25;7.35;;;4.05;;
30458;SDS011;74163;50.912;6.918;2023-12-22T01:18:57;7.95;;;3.58;;
30458;SDS011;74163;50.912;6.918;2023-12-22T01:19:29;6.45;;;3.53;;
30458;SDS011;74163;50.912;6.918;2023-12-22T01:20:01;8.88;;;3.67;;
30458;SDS011;74163;50.912;6.918;2023-12-22T01:20:33;7.03;;;3.65;;
30458;SDS011;74163;50.912;6.918;2023-12-22T01:21:04;8.13;;;3.75;;
30458;SDS011;74163;50.912;6.918;2023-12-22T01:21:36;9.05;;;3.80;;
30458;SDS011;74163;50.912;6.918;2023-12-22T01:22:08;9.65;;;4.13;;
30458;SDS011;74163;50.912;6.918;2023-12-22T01:22:40;9.25;;;3.92;;
30458;SDS011;74163;50.912;6.918;2023-12-22T01:23:12;7.70;;;3.40;;
30458;SDS011;74163;50.912;6.918;2023-12-22T01:23:44;8.43;;;3.53;;
30458;SDS011;74163;50.912;6.918;2023-12-22T01:24:15;11.30;;;4.38;;
30458;SDS011;74163;50.912;6.918;2023-12-22T01:24:47;8.93;;;4.07;;
30458;SDS011;74163;50.912;6.918;2023-12-22T01:25:19;8.70;;;3.70;;
30458;SDS011;74163;50.912;6.918;2023-12-22T01:25:51;10.27;;;3.80;;
30458;SDS011;74163;50.912;6.918;2023-12-22T01:26:23;6.23;;;3.67;;
30458;SDS011;74163;50.912;6.918;2023-12-22T01:26:55;8.32;;;3.60;;
30458;SDS011;74163;50.912;6.918;2023-12-22T01:27:27;9.30;;;4.03;;
30458;SDS011;74163;50.912;6.918;2023-12-22T01:27:59;8.48;;;3.95;;
30458;SDS011;74163;50.912;6.918;2023-12-22T01:28:34;7.88;;;3.97;;
30458;SDS011;74163;50.912;6.918;2023-12-22T01:29:05;8.25;;;3.90;;
30458;SDS011;74163;50.912;6.918;2023-12-22T01:29:37;9.05;;;3.75;;
30458;SDS011;74163;50.912;6.918;2023-12-22T01:30:09;8.85;;;4.00;;
30458;SDS011;74163;50.912;6.918;2023-12-22T01:30:43;7.38;;;3.50;;
30458;SDS011;74163;50.912;6.918;2023-12-22T01:31:14;7.95;;;3.95;;
30458;SDS011;74163;50.912;6.918;2023-12-22T01:31:46;9.88;;;3.80;;
30458;SDS011;74163;50.912;6.918;2023-12-22T01:32:18;9.25;;;4.03;;
30458;SDS011;74163;50.912;6.918;2023-12-22T01:32:50;10.05;;;4.38;;
30458;SDS011;74163;50.912;6.918;2023-12-22T01:33:22;8.60;;;4.20;;
30458;SDS011;74163;50.912;6.918;2023-12-22T01:33:54;8.32;;;4.07;;
30458;SDS011;74163;50.912;6.918;2023-12-22T01:34:26;9.10;;;4.00;;
30458;SDS011;74163;50.912;6.918;2023-12-22T01:34:58;9.02;;;4.18;;
30458;SDS011;74163;50.912;6.918;2023-12-22T01:35:30;7.82;;;3.88;;
30458;SDS011;74163;50.912;6.918;2023-12-22T01:36:02;6.95;;;3.90;;
30458;SDS011;74163;50.912;6.918;2023-12-22T01:36:34;8.82;;;3.80;;
30458;SDS011;74163;50.912;6.918;2023-12-22T01:37:06;6.88;;;3.83;;
30458;SDS011;74163;50.912;6.918;2023-12-22T01:37:38;8.27;;;3.78;;
30458;SDS011;74163;50.912;6.918;2023-12-22T01:38:10;9.63;;;3.85;;
30458;SDS011;74163;50.912;6.918;2023-12-22T01:38:41;9.57;;;4.20;;
30458;SDS011;74163;50.912;6.918;2023-12-22T01:39:13;9.27;;;4.00;;
30458;SDS011;74163;50.912;6.918;2023-12-22T01:39:45;6.88;;;3.78;;
30458;SDS011;74163;50.912;6.918;2023-12-22T01:40:17;7.50;;;3.45;;
30458;SDS011;74163;50.912;6.918;2023-12-22T01:40:49;7.07;;;3.47;;
30458;SDS011;74163;50.912;6.918;2023-12-22T01:41:21;10.18;;;3.72;;
30458;SDS011;74163;50.912;6.918;2023-12-22T01:41:52;11.30;;;4.63;;
30458;SDS011;74163;50.912;6.918;2023-12-22T01:42:24;8.48;;;4.55;;
30458;SDS011;74163;50.912;6.918;2023-12-22T01:42:56;10.18;;;4.13;;
30458;SDS011;74163;50.912;6.918;2023-12-22T01:43:28;8.30;;;4.10;;
30458;SDS011;74163;50.912;6.918;2023-12-22T01:44:00;11.50;;;3.97;;
30458;SDS011;74163;50.912;6.918;2023-12-22T01:44:32;8.95;;;4.20;;
30458;SDS011;74163;50.912;6.918;2023-12-22T01:45:04;9.52;;;4.32;;
30458;SDS011;74163;50.912;6.918;2023-12-22T01:45:36;8.32;;;4.15;;
30458;SDS011;74163;50.912;6.918;2023-12-22T01:46:09;8.73;;;4.15;;
30458;SDS011;74163;50.912;6.918;2023-12-22T01:46:42;10.05;;;3.97;;
30458;SDS011;74163;50.912;6.918;2023-12-22T01:47:14;9.02;;;3.70;;
30458;SDS011;74163;50.912;6.918;2023-12-22T01:47:46;11.77;;;4.40;;
30458;SDS011;74163;50.912;6.918;2023-12-22T01:48:19;8.80;;;3.97;;
30458;SDS011;74163;50.912;6.918;2023-12-22T01:48:51;10.55;;;4.30;;
30458;SDS011;74163;50.912;6.918;2023-12-22T01:49:23;8.27;;;3.95;;
30458;SDS011;74163;50.912;6.918;2023-12-22T01:49:55;8.27;;;3.95;;
30458;SDS011;74163;50.912;6.918;2023-12-22T01:50:26;8.38;;;4.88;;
30458;SDS011;74163;50.912;6.918;2023-12-22T01:50:59;9.45;;;4.68;;
30458;SDS011;74163;50.912;6.918;2023-12-22T01:51:32;12.20;;;4.43;;
30458;SDS011;74163;50.912;6.918;2023-12-22T01:52:08;8.70;;;4.80;;
30458;SDS011;74163;50.912;6.918;2023-12-22T01:52:40;10.00;;;4.17;;
30458;SDS011;74163;50.912;6.918;2023-12-22T01:53:14;10.43;;;4.80;;
30458;SDS011;74163;50.912;6.918;2023-12-22T01:53:46;11.15;;;4.70;;
30458;SDS011;74163;50.912;6.918;2023-12-22T01:54:18;12.30;;;4.88;;
30458;SDS011;74163;50.912;6.918;2023-12-22T01:54:50;11.13;;;4.25;;
30458;SDS011;74163;50.912;6.918;2023-12-22T01:55:22;10.32;;;4.50;;
30458;SDS011;74163;50.912;6.918;2023-12-22T01:55:54;10.30;;;4.70;;
30458;SDS011;74163;50.912;6.918;2023-12-22T01:56:26;11.65;;;4.50;;
30458;SDS011;74163;50.912;6.918;2023-12-22T01:56:59;11.57;;;4.40;;
30458;SDS011;74163;50.912;6.918;2023-12-22T01:57:32;9.20;;;4.35;;
30458;SDS011;74163;50.912;6.918;2023-12-22T01:58:04;11.35;;;4.95;;
30458;SDS011;74163;50.912;6.918;2023-12-22T01:58:36;10.32;;;4.18;;
30458;SDS011;74163;50.912;6.918;2023-12-22T01:59:20;10.70;;;4.57;;
30458;SDS011;74163;50.912;6.918;2023-12-22T01:59:52;9.48;;;3.95;;
30458;SDS011;74163;50.912;6.918;2023-12-22T02:00:24;11.18;;;4.47;;
30458;SDS011;74163;50.912;6.918;2023-12-22T02:00:56;8.68;;;4.18;;
30458;SDS011;74163;50.912;6.918;2023-12-22T02:01:29;12.67;;;4.27;;
30458;SDS011;74163;50.912;6.918;2023-12-22T02:02:03;8.07;;;4.00;;
30458;SDS011;74163;50.912;6.918;2023-12-22T02:02:35;9.73;;;4.40;;
30458;SDS011;74163;50.912;6.918;2023-12-22T02:03:07;9.63;;;4.07;;
30458;SDS011;74163;50.912;6.918;2023-12-22T02:03:39;9.63;;;4.45;;
30458;SDS011;74163;50.912;6.918;2023-12-22T02:04:12;10.18;;;4.25;;
30458;SDS011;74163;50.912;6.918;2023-12-22T02:04:45;10.98;;;4.53;;
30458;SDS011;74163;50.912;6.918;2023-12-22T02:05:18;9.40;;;4.50;;
30458;SDS011;74163;50.912;6.918;2023-12-22T02:05:50;12.45;;;4.72;;
30458;SDS011;74163;50.912;6.918;2023-12-22T02:06:22;10.27;;;4.63;;
30458;SDS011;74163;50.912;6.918;2023-12-22T02:06:54;10.80;;;4.55;;
30458;SDS011;74163;50.912;6.918;2023-12-22T02:07:26;12.13;;;4.50;;
30458;SDS011;74163;50.912;6.918;2023-12-22T02:07:58;10.50;;;4.75;;
30458;SDS011;74163;50.912;6.918;2023-12-22T02:08:31;8.73;;;4.40;;
30458;SDS011;74163;50.912;6.918;2023-12-22T02:09:03;8.52;;;4.38;;
30458;SDS011;74163;50.912;6.918;2023-12-22T02:09:35;9.07;;;4.57;;
30458;SDS011;74163;50.912;6.918;2023-12-22T02:10:07;8.95;;;3.95;;
30458;SDS011;74163;50.912;6.918;2023-12-22T02:10:39;9.05;;;5.20;;
30458;SDS011;74163;50.912;6.918;2023-12-22T02:11:12;11.10;;;4.22;;
30458;SDS011;74163;50.912;6.918;2023-12-22T02:11:44;8.87;;;4.50;;
30458;SDS011;74163;50.912;6.918;2023-12-22T02:12:15;8.70;;;4.40;;
30458;SDS011;74163;50.912;6.918;2023-12-22T02:12:47;9.55;;;4.30;;
30458;SDS011;74163;50.912;6.918;2023-12-22T02:13:19;8.88;;;4.10;;
30458;SDS011;74163;50.912;6.918;2023-12-22T02:13:51;10.43;;;4.60;;
30458;SDS011;74163;50.912;6.918;2023-12-22T02:14:23;11.13;;;4.50;;
30458;SDS011;74163;50.912;6.918;2023-12-22T02:14:54;9.43;;;4.25;;
30458;SDS011;74163;50.912;6.918;2023-12-22T02:15:26;12.43;;;4.78;;
30458;SDS011;74163;50.912;6.918;2023-12-22T02:16:00;10.30;;;4.65;;
30458;SDS011;74163;50.912;6.918;2023-12-22T02:16:39;9.25;;;4.30;;
30458;SDS011;74163;50.912;6.918;2023-12-22T02:17:18;11.15;;;4.75;;
30458;SDS011;74163;50.912;6.918;2023-12-22T02:17:54;9.93;;;4.50;;
30458;SDS011;74163;50.912;6.918;2023-12-22T02:18:31;8.48;;;4.55;;
30458;SDS011;74163;50.912;6.918;2023-12-22T02:19:09;8.75;;;3.80;;
30458;SDS011;74163;50.912;6.918;2023-12-22T02:19:51;8.65;;;4.10;;
30458;SDS011;74163;50.912;6.918;2023-12-22T02:20:25;9.27;;;4.07;;
30458;SDS011;74163;50.912;6.918;2023-12-22T02:20:57;10.60;;;4.13;;
30458;SDS011;74163;50.912;6.918;2023-12-22T02:21:29;9.48;;;3.78;;
30458;SDS011;74163;50.912;6.918;2023-12-22T02:22:02;10.23;;;4.30;;
30458;SDS011;74163;50.912;6.918;2023-12-22T02:22:41;9.30;;;4.40;;
30458;SDS011;74163;50.912;6.918;2023-12-22T02:23:12;10.65;;;4.57;;
30458;SDS011;74163;50.912;6.918;2023-12-22T02:23:46;11.82;;;4.75;;
30458;SDS011;74163;50.912;6.918;2023-12-22T02:24:18;9.63;;;3.95;;
30458;SDS011;74163;50.912;6.918;2023-12-22T02:24:50;9.88;;;4.18;;
30458;SDS011;74163;50.912;6.918;2023-12-22T02:25:22;11.70;;;4.57;;
30458;SDS011;74163;50.912;6.918;2023-12-22T02:25:55;10.95;;;5.07;;
30458;SDS011;74163;50.912;6.918;2023-12-22T02:26:38;9.60;;;4.45;;
30458;SDS011;74163;50.912;6.918;2023-12-22T02:27:21;9.93;;;4.18;;
30458;SDS011;74163;50.912;6.918;2023-12-22T02:28:05;10.45;;;4.65;;
30458;SDS011;74163;50.912;6.918;2023-12-22T02:28:40;8.83;;;4.10;;
30458;SDS011;74163;50.912;6.918;2023-12-22T02:29:14;8.43;;;4.40;;
30458;SDS011;74163;50.912;6.918;2023-12-22T02:29:48;12.00;;;4.72;;
30458;SDS011;74163;50.912;6.918;2023-12-22T02:30:38;11.75;;;5.22;;
30458;SDS011;74163;50.912;6.918;2023-12-22T02:31:16;8.85;;;3.78;;
30458;SDS011;74163;50.912;6.918;2023-12-22T02:31:49;12.38;;;4.43;;
30458;SDS011;74163;50.912;6.918;2023-12-22T02:32:25;11.35;;;4.70;;
30458;SDS011;74163;50.912;6.918;2023-12-22T02:33:02;14.32;;;4.57;;
30458;SDS011;74163;50.912;6.918;2023-12-22T02:33:35;9.93;;;4.38;;
30458;SDS011;74163;50.912;6.918;2023-12-22T02:34:11;10.70;;;4.57;;
30458;SDS011;74163;50.912;6.918;2023-12-22T02:34:47;9.43;;;4.18;;
30458;SDS011;74163;50.912;6.918;2023-12-22T02:35:24;9.77;;;4.55;;
30458;SDS011;74163;50.912;6.918;2023-12-22T02:35:58;12.27;;;3.90;;
30458;SDS011;74163;50.912;6.918;2023-12-22T02:36:34;13.15;;;4.80;;
30458;SDS011;74163;50.912;6.918;2023-12-22T02:37:09;10.75;;;4.68;;
30458;SDS011;74163;50.912;6.918;2023-12-22T02:37:44;11.73;;;4.72;;
30458;SDS011;74163;50.912;6.918;2023-12-22T02:38:17;10.70;;;4.20;;
30458;SDS011;74163;50.912;6.918;2023-12-22T02:38:51;11.75;;;4.78;;
30458;SDS011;74163;50.912;6.918;2023-12-22T02:39:26;14.85;;;4.63;;
30458;SDS011;74163;50.912;6.918;2023-12-22T02:39:57;15.65;;;5.00;;
30458;SDS011;74163;50.912;6.918;2023-12-22T02:40:30;13.43;;;4.78;;
30458;SDS011;74163;50.912;6.918;2023-12-22T02:41:03;11.43;;;4.72;;
30458;SDS011;74163;50.912;6.918;2023-12-22T02:41:35;11.60;;;4.15;;
30458;SDS011;74163;50.912;6.918;2023-12-22T02:42:07;12.45;;;4.40;;
30458;SDS011;74163;50.912;6.918;2023-12-22T02:42:40;11.10;;;4.70;;
30458;SDS011;74163;50.912;6.918;2023-12-22T02:43:12;13.73;;;4.40;;
30458;SDS011;74163;50.912;6.918;2023-12-22T02:43:44;10.45;;;4.20;;
30458;SDS011;74163;50.912;6.918;2023-12-22T02:44:16;14.70;;;5.10;;
30458;SDS011;74163;50.912;6.918;2023-12-22T02:44:48;11.57;;;4.80;;
30458;SDS011;74163;50.912;6.918;2023-12-22T02:45:21;11.75;;;4.20;;
30458;SDS011;74163;50.912;6.918;2023-12-22T02:45:53;11.98;;;4.40;;
30458;SDS011;74163;50.912;6.918;2023-12-22T02:46:25;10.98;;;4.60;;
30458;SDS011;74163;50.912;6.918;2023-12-22T02:46:57;11.35;;;4.93;;
30458;SDS011;74163;50.912;6.918;2023-12-22T02:47:28;12.60;;;5.13;;
30458;SDS011;74163;50.912;6.918;2023-12-22T02:48:00;9.82;;;5.00;;
30458;SDS011;74163;50.912;6.918;2023-12-22T02:48:32;14.18;;;4.70;;
30458;SDS011;74163;50.912;6.918;2023-12-22T02:49:04;13.60;;;4.63;;
30458;SDS011;74163;50.912;6.918;2023-12-22T02:49:36;12.02;;;4.50;;
30458;SDS011;74163;50.912;6.918;2023-12-22T02:50:08;13.27;;;4.90;;
30458;SDS011;74163;50.912;6.918;2023-12-22T02:50:41;15.82;;;5.07;;
30458;SDS011;74163;50.912;6.918;2023-12-22T02:51:13;10.80;;;4.67;;
30458;SDS011;74163;50.912;6.918;2023-12-22T02:51:44;9.98;;;4.18;;
30458;SDS011;74163;50.912;6.918;2023-12-22T02:52:16;13.50;;;4.68;;
30458;SDS011;74163;50.912;6.918;2023-12-22T02:52:49;11.82;;;4.88;;
30458;SDS011;74163;50.912;6.918;2023-12-22T02:53:21;14.43;;;4.93;;
30458;SDS011;74163;50.912;6.918;2023-12-22T02:53:53;12.88;;;5.32;;
30458;SDS011;74163;50.912;6.918;2023-12-22T02:54:25;14.13;;;5.03;;
30458;SDS011;74163;50.912;6.918;2023-12-22T02:54:56;12.80;;;5.05;;
30458;SDS011;74163;50.912;6.918;2023-12-22T02:55:28;12.68;;;4.90;;
30458;SDS011;74163;50.912;6.918;2023-12-22T02:56:00;11.38;;;4.90;;
30458;SDS011;74163;50.912;6.918;2023-12-22T02:56:32;13.55;;;5.32;;
30458;SDS011;74163;50.912;6.918;2023-12-22T02:57:04;11.85;;;5.32;;
30458;SDS011;74163;50.912;6.918;2023-12-22T02:57:36;13.98;;;5.18;;
30458;SDS011;74163;50.912;6.918;2023-12-22T02:58:08;12.45;;;4.75;;
30458;SDS011;74163;50.912;6.918;2023-12-22T02:58:39;11.77;;;5.18;;
30458;SDS011;74163;50.912;6.918;2023-12-22T02:59:11;13.15;;;5.03;;
30458;SDS011;74163;50.912;6.918;2023-12-22T02:59:43;13.85;;;5.55;;
30458;SDS011;74163;50.912;6.918;2023-12-22T03:00:15;9.95;;;4.68;;
30458;SDS011;74163;50.912;6.918;2023-12-22T03:00:47;8.95;;;4.45;;
30458;SDS011;74163;50.912;6.918;2023-12-22T03:01:19;12.13;;;4.90;;
30458;SDS011;74163;50.912;6.918;2023-12-22T03:01:51;17.15;;;5.18;;
30458;SDS011;74163;50.912;6.918;2023-12-22T03:02:23;12.43;;;5.00;;
30458;SDS011;74163;50.912;6.918;2023-12-22T03:02:55;12.43;;;5.05;;
30458;SDS011;74163;50.912;6.918;2023-12-22T03:03:26;13.52;;;5.05;;
30458;SDS011;74163;50.912;6.918;2023-12-22T03:03:58;12.45;;;4.72;;
30458;SDS011;74163;50.912;6.918;2023-12-22T03:04:30;12.68;;;5.05;;
30458;SDS011;74163;50.912;6.918;2023-12-22T03:05:02;11.20;;;4.88;;
30458;SDS011;74163;50.912;6.918;2023-12-22T03:05:34;11.02;;;4.40;;
30458;SDS011;74163;50.912;6.918;2023-12-22T03:06:06;11.45;;;5.00;;
30458;SDS011;74163;50.912;6.918;2023-12-22T03:06:38;13.30;;;4.72;;
30458;SDS011;74163;50.912;6.918;2023-12-22T03:07:10;13.15;;;5.25;;
30458;SDS011;74163;50.912;6.918;2023-12-22T03:07:42;16.15;;;4.70;;
30458;SDS011;74163;50.912;6.918;2023-12-22T03:08:15;10.98;;;4.47;;
30458;SDS011;74163;50.912;6.918;2023-12-22T03:08:47;10.88;;;4.40;;
30458;SDS011;74163;50.912;6.918;2023-12-22T03:09:18;11.13;;;4.35;;
30458;SDS011;74163;50.912;6.918;2023-12-22T03:09:50;12.05;;;4.60;;
30458;SDS011;74163;50.912;6.918;2023-12-22T03:10:22;9.82;;;4.22;;
30458;SDS011;74163;50.912;6.918;2023-12-22T03:10:54;12.65;;;4.22;;
30458;SDS011;74163;50.912;6.918;2023-12-22T03:11:26;15.70;;;4.90;;
30458;SDS011;74163;50.912;6.918;2023-12-22T03:11:58;11.00;;;4.05;;
30458;SDS011;74163;50.912;6.918;2023-12-22T03:12:30;11.40;;;4.63;;
30458;SDS011;74163;50.912;6.918;2023-12-22T03:13:01;11.57;;;4.05;;
30458;SDS011;74163;50.912;6.918;2023-12-22T03:13:33;10.88;;;4.45;;
30458;SDS011;74163;50.912;6.918;2023-12-22T03:14:05;11.38;;;4.57;;
30458;SDS011;74163;50.912;6.918;2023-12-22T03:14:37;10.48;;;4.30;;
30458;SDS011;74163;50.912;6.918;2023-12-22T03:15:09;11.32;;;4.57;;
30458;SDS011;74163;50.912;6.918;2023-12-22T03:15:41;10.13;;;4.50;;